createdAt,value
2022-08-27T00:02:19.173Z,8.20
2022-08-27T00:04:47.957Z,8.80
2022-08-27T00:07:16.808Z,8.50
2022-08-27T00:09:45.622Z,8.60
2022-08-27T00:12:14.031Z,8.13
2022-08-27T00:14:43.765Z,8.43
2022-08-27T00:17:12.664Z,8.20
2022-08-27T00:19:41.989Z,8.50
2022-08-27T00:22:12.067Z,8.40
2022-08-27T00:24:49.148Z,8.30
2022-08-27T00:27:18.946Z,8.40
2022-08-27T00:29:49.112Z,8.43
2022-08-27T00:32:18.529Z,8.40
2022-08-27T00:34:47.123Z,8.33
2022-08-27T00:37:16.233Z,8.43
2022-08-27T00:39:44.767Z,8.13
2022-08-27T00:42:14.476Z,8.50
2022-08-27T00:44:42.867Z,8.30
2022-08-27T00:47:18.241Z,8.70
2022-08-27T00:49:55.118Z,8.47
2022-08-27T00:52:27.856Z,8.40
2022-08-27T00:55:02.127Z,8.53
2022-08-27T00:57:31.795Z,8.60
2022-08-27T01:00:00.179Z,8.50
2022-08-27T01:02:30.834Z,8.50
2022-08-27T01:05:03.148Z,8.57
2022-08-27T01:07:34.963Z,8.40
2022-08-27T01:10:07.217Z,8.33
2022-08-27T01:12:36.325Z,8.40
2022-08-27T01:15:12.003Z,8.57
2022-08-27T01:17:46.602Z,8.60
2022-08-27T01:20:19.646Z,8.23
2022-08-27T01:22:58.424Z,8.47
2022-08-27T01:25:29.024Z,8.60
2022-08-27T01:28:00.587Z,8.63
2022-08-27T01:30:29.991Z,8.50
2022-08-27T01:32:58.861Z,8.33
2022-08-27T01:35:28.017Z,8.40
2022-08-27T01:37:57.328Z,8.60
2022-08-27T01:40:27.190Z,8.50
2022-08-27T01:42:57.875Z,8.30
2022-08-27T01:45:30.633Z,8.90
2022-08-27T01:47:59.996Z,8.30
2022-08-27T01:50:32.901Z,8.47
2022-08-27T01:53:05.636Z,8.40
2022-08-27T01:55:35.484Z,8.77
2022-08-27T01:58:04.673Z,8.33
2022-08-27T02:00:37.381Z,8.20
2022-08-27T02:03:07.345Z,8.67
2022-08-27T02:05:44.665Z,8.40
2022-08-27T02:08:15.938Z,8.40
2022-08-27T02:10:48.068Z,8.40
2022-08-27T02:13:17.378Z,8.80
2022-08-27T02:15:45.951Z,8.53
2022-08-27T02:18:15.501Z,8.60
2022-08-27T02:20:44.894Z,8.57
2022-08-27T02:23:13.561Z,8.60
2022-08-27T02:25:42.680Z,8.50
2022-08-27T02:28:12.516Z,8.57
2022-08-27T02:30:41.149Z,8.50
2022-08-27T02:33:10.960Z,8.50
2022-08-27T02:35:40.690Z,8.47
2022-08-27T02:38:09.671Z,8.47
2022-08-27T02:40:38.340Z,8.60
2022-08-27T02:43:06.886Z,8.40
2022-08-27T02:45:37.863Z,8.50
2022-08-27T02:48:07.830Z,8.17
2022-08-27T02:50:37.144Z,8.57
2022-08-27T02:53:07.365Z,8.50
2022-08-27T02:55:36.502Z,8.50
2022-08-27T02:58:06.438Z,8.40
2022-08-27T03:00:36.318Z,8.50
2022-08-27T03:03:05.066Z,8.40
2022-08-27T03:05:33.656Z,8.30
2022-08-27T03:08:01.972Z,8.33
2022-08-27T03:10:30.987Z,8.57
2022-08-27T03:12:59.385Z,8.87
2022-08-27T03:15:27.703Z,9.00
2022-08-27T03:18:14.865Z,8.43
2022-08-27T03:20:44.987Z,8.43
2022-08-27T03:23:15.157Z,8.60
2022-08-27T03:25:46.635Z,8.60
2022-08-27T03:28:22.568Z,8.40
2022-08-27T03:30:55.281Z,8.97
2022-08-27T03:33:26.242Z,8.40
2022-08-27T03:35:54.800Z,8.50
2022-08-27T03:38:24.127Z,8.40
2022-08-27T03:40:52.668Z,8.50
2022-08-27T03:43:23.314Z,8.73
2022-08-27T03:46:02.033Z,8.70
2022-08-27T03:48:34.142Z,8.40
2022-08-27T03:51:08.007Z,8.40
2022-08-27T03:53:37.566Z,8.50
2022-08-27T03:56:07.343Z,8.67
2022-08-27T03:58:36.242Z,8.50
2022-08-27T04:01:06.192Z,8.60
2022-08-27T04:03:36.859Z,8.47
2022-08-27T04:06:05.838Z,8.50
2022-08-27T04:08:34.201Z,8.60
2022-08-27T04:11:06.225Z,8.60
2022-08-27T04:13:34.660Z,8.30
2022-08-27T04:16:03.003Z,8.60
2022-08-27T04:18:31.370Z,8.47
2022-08-27T04:21:08.959Z,8.63
2022-08-27T04:23:37.286Z,8.40
2022-08-27T04:26:06.816Z,8.97
2022-08-27T04:28:38.601Z,8.70
2022-08-27T04:31:27.821Z,8.80
2022-08-27T04:33:56.209Z,8.40
2022-08-27T04:36:26.047Z,8.50
2022-08-27T04:38:54.381Z,8.50
2022-08-27T04:41:23.249Z,8.70
2022-08-27T04:43:54.156Z,8.50
2022-08-27T04:46:25.484Z,8.77
2022-08-27T04:48:55.186Z,8.60
2022-08-27T04:51:24.935Z,8.50
2022-08-27T04:53:53.753Z,8.70
2022-08-27T04:56:24.091Z,9.00
2022-08-27T04:58:52.992Z,8.47
2022-08-27T05:01:24.498Z,8.57
2022-08-27T05:03:54.025Z,8.80
2022-08-27T05:06:23.905Z,8.40
2022-08-27T05:08:54.967Z,8.60
2022-08-27T05:11:28.416Z,8.30
2022-08-27T05:13:56.883Z,8.57
2022-08-27T05:16:25.556Z,8.73
2022-08-27T05:18:54.640Z,8.60
2022-08-27T05:21:25.599Z,8.80
2022-08-27T05:23:57.576Z,8.60
2022-08-27T05:26:26.366Z,8.77
2022-08-27T05:28:54.999Z,8.60
2022-08-27T05:31:24.090Z,8.83
2022-08-27T05:33:52.577Z,8.53
2022-08-27T05:36:26.257Z,8.60
2022-08-27T05:38:58.309Z,8.60
2022-08-27T05:41:34.296Z,8.83
2022-08-27T05:44:36.738Z,8.93
2022-08-27T05:46:56.192Z,8.40
2022-08-27T05:49:24.514Z,8.77
2022-08-27T05:51:52.855Z,9.00
2022-08-27T05:54:22.812Z,8.90
2022-08-27T05:56:51.263Z,8.70
2022-08-27T05:59:37.914Z,9.20
2022-08-27T06:02:07.220Z,8.90
2022-08-27T06:04:35.722Z,9.23
2022-08-27T06:07:04.837Z,9.60
2022-08-27T06:09:34.586Z,9.80
2022-08-27T06:12:03.472Z,10.20
2022-08-27T06:14:32.166Z,9.97
2022-08-27T06:17:02.007Z,9.13
2022-08-27T06:19:30.884Z,8.90
2022-08-27T06:22:24.386Z,8.70
2022-08-27T06:24:54.298Z,9.20
2022-08-27T06:27:22.655Z,8.90
2022-08-27T06:29:51.012Z,9.03
2022-08-27T06:32:19.983Z,9.80
2022-08-27T06:34:48.746Z,9.40
2022-08-27T06:37:17.052Z,9.27
2022-08-27T06:39:45.583Z,8.97
2022-08-27T06:42:15.280Z,9.10
2022-08-27T06:44:43.644Z,9.10
2022-08-27T06:47:12.228Z,9.10
2022-08-27T06:49:46.301Z,9.50
2022-08-27T06:52:16.043Z,9.50
2022-08-27T06:54:45.084Z,9.53
2022-08-27T06:57:14.764Z,9.97
2022-08-27T06:59:44.159Z,9.80
2022-08-27T07:02:12.723Z,9.97
2022-08-27T07:04:41.133Z,10.40
2022-08-27T07:07:13.751Z,9.97
2022-08-27T07:09:42.368Z,10.20
2022-08-27T07:12:10.819Z,10.07
2022-08-27T07:14:40.572Z,9.90
2022-08-27T07:17:11.320Z,10.00
2022-08-27T07:19:45.524Z,10.30
2022-08-27T07:22:14.228Z,10.00
2022-08-27T07:24:42.623Z,9.80
2022-08-27T07:27:11.070Z,9.73
2022-08-27T07:29:41.589Z,10.03
2022-08-27T07:32:10.115Z,10.17
2022-08-27T07:34:38.515Z,10.03
2022-08-27T07:37:06.835Z,10.00
2022-08-27T07:39:35.346Z,9.50
2022-08-27T07:42:21.558Z,9.83
2022-08-27T07:44:51.396Z,9.97
2022-08-27T07:47:19.814Z,10.00
2022-08-27T07:49:48.697Z,10.00
2022-08-27T07:52:17.238Z,9.80
2022-08-27T07:54:46.023Z,9.73
2022-08-27T07:57:14.363Z,10.17
2022-08-27T07:59:42.739Z,9.63
2022-08-27T08:02:12.870Z,9.90
2022-08-27T08:04:41.266Z,10.33
2022-08-27T08:07:09.631Z,9.83
2022-08-27T08:09:38.054Z,9.87
2022-08-27T08:12:07.536Z,9.77
2022-08-27T08:14:36.025Z,10.03
2022-08-27T08:17:10.110Z,9.93
2022-08-27T08:19:40.456Z,9.77
2022-08-27T08:22:09.356Z,9.63
2022-08-27T08:24:37.757Z,10.37
2022-08-27T08:27:07.900Z,10.27
2022-08-27T08:29:37.873Z,9.47
2022-08-27T08:32:07.870Z,9.30
2022-08-27T08:34:36.950Z,9.90
2022-08-27T08:37:07.805Z,11.10
2022-08-27T08:39:38.277Z,10.47
2022-08-27T08:42:10.323Z,10.87
2022-08-27T08:44:48.585Z,9.77
2022-08-27T08:47:21.589Z,10.83
2022-08-27T08:49:56.012Z,10.43
2022-08-27T08:52:47.855Z,11.00
2022-08-27T08:55:31.914Z,11.50
2022-08-27T08:58:13.345Z,11.60
2022-08-27T09:00:46.313Z,10.93
2022-08-27T09:03:16.715Z,12.30
2022-08-27T09:05:50.072Z,11.30
2022-08-27T09:08:41.788Z,10.97
2022-08-27T09:11:23.061Z,11.00
2022-08-27T09:13:56.028Z,10.80
2022-08-27T09:16:24.734Z,10.53
2022-08-27T09:18:53.435Z,10.27
2022-08-27T09:21:34.302Z,9.70
2022-08-27T09:24:13.846Z,9.40
2022-08-27T09:26:45.101Z,9.33
2022-08-27T09:29:17.178Z,9.20
2022-08-27T09:31:49.220Z,9.40
2022-08-27T09:34:17.628Z,9.00
2022-08-27T09:37:02.981Z,8.80
2022-08-27T09:39:43.507Z,8.90
2022-08-27T09:42:27.556Z,8.70
2022-08-27T09:44:56.907Z,8.90
2022-08-27T09:47:26.448Z,9.30
2022-08-27T09:50:08.806Z,9.07
2022-08-27T09:52:54.944Z,9.00
2022-08-27T09:55:44.740Z,9.60
2022-08-27T09:58:21.820Z,9.23
2022-08-27T10:01:00.917Z,9.63
2022-08-27T10:03:33.222Z,9.60
2022-08-27T10:06:02.267Z,10.00
2022-08-27T10:08:39.829Z,10.10
2022-08-27T10:11:16.323Z,10.93
2022-08-27T10:13:54.191Z,10.50
2022-08-27T10:16:42.005Z,10.00
2022-08-27T10:19:23.285Z,10.17
2022-08-27T10:22:01.167Z,10.07
2022-08-27T10:24:39.827Z,10.43
2022-08-27T10:27:19.364Z,9.90
2022-08-27T10:29:55.849Z,9.50
2022-08-27T10:32:57.630Z,9.80
2022-08-27T10:35:48.348Z,9.80
2022-08-27T10:38:43.886Z,9.40
2022-08-27T10:41:19.088Z,10.33
2022-08-27T10:44:34.609Z,9.57
2022-08-27T10:47:18.698Z,9.30
2022-08-27T10:50:03.416Z,9.10
2022-08-27T10:52:43.035Z,9.20
2022-08-27T10:55:18.816Z,9.00
2022-08-27T10:58:22.601Z,9.23
2022-08-27T11:01:04.168Z,9.20
2022-08-27T11:03:41.273Z,9.23
2022-08-27T11:06:24.899Z,9.40
2022-08-27T11:08:59.191Z,9.60
2022-08-27T11:14:33.961Z,10.07
2022-08-27T11:17:09.090Z,9.63
2022-08-27T11:19:50.576Z,10.13
2022-08-27T11:22:30.961Z,9.77
2022-08-27T11:25:05.219Z,10.13
2022-08-27T11:27:35.009Z,9.60
2022-08-27T11:30:08.334Z,9.90
2022-08-27T11:32:49.385Z,9.30
2022-08-27T11:36:06.623Z,9.87
2022-08-27T11:38:55.220Z,9.67
2022-08-27T11:42:07.140Z,10.30
2022-08-27T11:44:43.246Z,10.63
2022-08-27T11:47:16.549Z,10.20
2022-08-27T11:49:50.037Z,9.90
2022-08-27T11:52:29.281Z,10.10
2022-08-27T11:55:12.806Z,10.13
2022-08-27T11:57:41.468Z,9.80
2022-08-27T12:00:23.340Z,10.00
2022-08-27T12:03:02.611Z,10.23
2022-08-27T12:05:44.592Z,10.07
2022-08-27T12:08:27.733Z,9.70
2022-08-27T12:11:14.661Z,9.73
2022-08-27T12:13:52.420Z,9.53
2022-08-27T12:16:32.211Z,9.57
2022-08-27T12:19:18.751Z,9.97
2022-08-27T12:22:08.085Z,9.83
2022-08-27T12:24:55.938Z,10.20
2022-08-27T12:27:38.395Z,10.20
2022-08-27T12:30:28.004Z,9.60
2022-08-27T12:32:59.496Z,10.27
2022-08-27T12:35:34.146Z,9.93
2022-08-27T12:38:14.754Z,9.50
2022-08-27T12:40:51.760Z,9.97
2022-08-27T12:43:22.889Z,9.63
2022-08-27T12:45:56.846Z,9.70
2022-08-27T12:48:31.563Z,9.70
2022-08-27T12:51:04.877Z,9.77
2022-08-27T12:53:45.067Z,9.63
2022-08-27T12:56:41.960Z,9.70
2022-08-27T12:59:38.865Z,9.20
2022-08-27T13:02:26.567Z,9.10
2022-08-27T13:04:55.592Z,9.20
2022-08-27T13:07:28.770Z,8.87
2022-08-27T13:10:22.868Z,8.73
2022-08-27T13:13:05.336Z,8.80
2022-08-27T13:15:35.341Z,8.70
2022-08-27T13:18:07.677Z,8.70
2022-08-27T13:20:40.212Z,8.70
2022-08-27T13:23:19.813Z,8.80
2022-08-27T13:26:01.365Z,8.90
2022-08-27T13:28:31.344Z,8.70
2022-08-27T13:31:01.505Z,8.40
2022-08-27T13:33:34.174Z,8.50
2022-08-27T13:36:04.060Z,8.90
2022-08-27T13:38:36.232Z,8.50
2022-08-27T13:41:10.019Z,8.70
2022-08-27T13:43:42.396Z,8.33
2022-08-27T13:46:16.248Z,8.20
2022-08-27T13:48:48.095Z,7.87
2022-08-27T13:51:17.187Z,8.27
2022-08-27T13:54:07.125Z,8.10
2022-08-27T13:56:40.395Z,8.07
2022-08-27T13:59:12.306Z,8.33
2022-08-27T14:01:56.049Z,8.00
2022-08-27T14:04:27.960Z,8.00
2022-08-27T14:06:56.585Z,7.90
2022-08-27T14:09:28.662Z,8.10
2022-08-27T14:12:05.441Z,8.10
2022-08-27T14:14:41.599Z,8.60
2022-08-27T14:17:27.898Z,8.50
2022-08-27T14:20:01.801Z,8.30
2022-08-27T14:22:30.358Z,8.50
2022-08-27T14:24:58.733Z,8.53
2022-08-27T14:27:29.661Z,8.40
2022-08-27T14:29:58.522Z,8.30
2022-08-27T14:32:27.008Z,8.63
2022-08-27T14:34:55.330Z,8.93
2022-08-27T14:37:23.892Z,8.70
2022-08-27T14:39:52.701Z,8.77
2022-08-27T14:42:21.523Z,8.90
2022-08-27T14:44:53.288Z,8.70
2022-08-27T14:47:21.834Z,9.07
2022-08-27T14:49:55.274Z,8.80
2022-08-27T14:52:23.618Z,8.97
2022-08-27T14:54:51.951Z,8.90
2022-08-27T14:57:21.126Z,9.10
2022-08-27T14:59:49.463Z,9.13
2022-08-27T15:02:21.012Z,9.30
2022-08-27T15:04:49.442Z,9.60
2022-08-27T15:07:19.757Z,9.33
2022-08-27T15:09:51.168Z,9.20
2022-08-27T15:12:25.788Z,9.97
2022-08-27T15:14:54.775Z,10.00
2022-08-27T15:17:34.458Z,9.40
2022-08-27T15:20:07.251Z,9.57
2022-08-27T15:22:37.731Z,9.70
2022-08-27T15:25:10.951Z,10.00
2022-08-27T15:27:39.349Z,9.93
2022-08-27T15:30:10.956Z,9.50
2022-08-27T15:32:45.158Z,9.83
2022-08-27T15:35:17.674Z,9.80
2022-08-27T15:37:46.759Z,9.73
2022-08-27T15:40:17.950Z,10.17
2022-08-27T15:42:47.279Z,10.07
2022-08-27T15:45:16.083Z,10.30
2022-08-27T15:47:45.755Z,9.90
2022-08-27T15:50:14.200Z,10.60
2022-08-27T15:52:43.488Z,10.77
2022-08-27T15:55:21.804Z,10.40
2022-08-27T15:57:51.116Z,9.87
2022-08-27T16:00:21.823Z,9.50
2022-08-27T16:02:52.140Z,9.90
2022-08-27T16:05:22.025Z,9.07
2022-08-27T16:07:50.898Z,8.90
2022-08-27T16:10:19.743Z,8.70
2022-08-27T16:12:48.068Z,8.83
2022-08-27T16:15:17.521Z,8.70
2022-08-27T16:17:46.503Z,8.47
2022-08-27T16:20:17.255Z,8.50
2022-08-27T16:22:46.010Z,8.40
2022-08-27T16:25:18.409Z,8.30
2022-08-27T16:27:47.343Z,8.30
2022-08-27T16:30:16.143Z,8.50
2022-08-27T16:32:48.817Z,8.30
2022-08-27T16:35:18.983Z,8.13
2022-08-27T16:37:47.611Z,8.60
2022-08-27T16:40:16.952Z,8.30
2022-08-27T16:42:48.716Z,8.03
2022-08-27T16:45:20.175Z,8.30
2022-08-27T16:48:05.989Z,8.40
2022-08-27T16:50:36.397Z,8.30
2022-08-27T16:53:09.015Z,8.30
2022-08-27T16:55:39.125Z,8.50
2022-08-27T16:58:12.507Z,8.60
2022-08-27T17:00:41.229Z,8.60
2022-08-27T17:03:09.759Z,8.40
2022-08-27T17:05:39.551Z,8.90
2022-08-27T17:08:09.504Z,8.60
2022-08-27T17:10:45.715Z,8.57
2022-08-27T17:13:17.824Z,9.20
2022-08-27T17:15:50.846Z,8.80
2022-08-27T17:18:22.463Z,9.10
2022-08-27T17:20:53.297Z,9.10
2022-08-27T17:23:25.309Z,9.47
2022-08-27T17:25:53.811Z,9.00
2022-08-27T17:28:22.323Z,8.80
2022-08-27T17:30:50.958Z,8.93
2022-08-27T17:33:25.920Z,9.20
2022-08-27T17:35:55.637Z,8.83
2022-08-27T17:38:24.062Z,8.77
2022-08-27T17:40:53.451Z,9.27
2022-08-27T17:43:22.647Z,8.90
2022-08-27T17:45:51.227Z,8.93
2022-08-27T17:48:24.789Z,9.40
2022-08-27T17:50:56.323Z,9.20
2022-08-27T17:53:24.784Z,8.97
2022-08-27T17:55:53.135Z,8.97
2022-08-27T17:58:22.443Z,9.40
2022-08-27T18:00:51.286Z,8.97
2022-08-27T18:03:21.112Z,9.30
2022-08-27T18:05:51.144Z,8.57
2022-08-27T18:08:21.025Z,8.77
2022-08-27T18:10:51.824Z,8.93
2022-08-27T18:13:21.489Z,8.80
2022-08-27T18:15:51.520Z,8.40
2022-08-27T18:18:20.386Z,8.60
2022-08-27T18:20:48.755Z,8.50
2022-08-27T18:23:21.806Z,8.70
2022-08-27T18:25:51.142Z,8.40
2022-08-27T18:28:22.315Z,8.40
2022-08-27T18:30:51.359Z,8.50
2022-08-27T18:33:19.787Z,8.50
2022-08-27T18:35:48.192Z,8.30
2022-08-27T18:38:18.413Z,8.67
2022-08-27T18:40:50.247Z,8.50
2022-08-27T18:43:22.532Z,8.50
2022-08-27T18:45:50.939Z,8.57
2022-08-27T18:48:23.319Z,8.73
2022-08-27T18:50:57.002Z,8.53
2022-08-27T18:53:27.285Z,8.30
2022-08-27T18:55:57.433Z,8.57
2022-08-27T18:58:26.690Z,8.30
2022-08-27T19:00:58.556Z,8.90
2022-08-27T19:03:31.302Z,9.00
2022-08-27T19:06:00.590Z,8.70
2022-08-27T19:08:29.465Z,9.20
2022-08-27T19:10:59.458Z,9.33
2022-08-27T19:13:27.931Z,8.90
2022-08-27T19:15:59.755Z,9.20
2022-08-27T19:18:30.826Z,9.00
2022-08-27T19:20:59.543Z,8.77
2022-08-27T19:23:28.238Z,8.83
2022-08-27T19:25:59.278Z,8.77
2022-08-27T19:28:32.887Z,8.57
2022-08-27T19:31:01.247Z,8.67
2022-08-27T19:33:29.813Z,9.00
2022-08-27T19:35:58.784Z,8.23
2022-08-27T19:38:29.847Z,8.70
2022-08-27T19:41:00.448Z,9.10
2022-08-27T19:43:29.022Z,9.13
2022-08-27T19:45:59.340Z,9.23
2022-08-27T19:48:27.913Z,8.80
2022-08-27T19:50:56.900Z,9.20
2022-08-27T19:53:25.521Z,8.93
2022-08-27T19:55:53.992Z,8.80
2022-08-27T19:58:23.780Z,9.80
2022-08-27T20:00:52.189Z,9.20
2022-08-27T20:03:20.804Z,9.23
2022-08-27T20:05:51.711Z,9.23
2022-08-27T20:08:21.282Z,9.00
2022-08-27T20:10:49.843Z,9.40
2022-08-27T20:13:18.260Z,9.40
2022-08-27T20:15:51.373Z,9.43
2022-08-27T20:18:20.168Z,9.30
2022-08-27T20:20:48.510Z,9.40
2022-08-27T20:23:16.973Z,10.27
2022-08-27T20:25:45.507Z,9.57
2022-08-27T20:28:37.871Z,9.60
2022-08-27T20:31:04.126Z,9.73
2022-08-27T20:33:32.452Z,9.93
2022-08-27T20:36:01.494Z,9.60
2022-08-27T20:38:30.235Z,10.03
2022-08-27T20:41:00.865Z,10.00
2022-08-27T20:43:37.109Z,9.60
2022-08-27T20:46:10.703Z,9.47
2022-08-27T20:48:42.025Z,9.33
2022-08-27T20:51:13.996Z,9.57
2022-08-27T20:53:43.183Z,9.57
2022-08-27T20:56:11.618Z,9.40
2022-08-27T20:59:13.001Z,9.10
2022-08-27T21:01:43.356Z,8.77
2022-08-27T21:04:12.545Z,8.60
2022-08-27T21:06:41.172Z,8.63
2022-08-27T21:09:09.611Z,8.50
2022-08-27T21:11:37.924Z,8.40
2022-08-27T21:14:17.642Z,8.23
2022-08-27T21:16:50.083Z,8.63
2022-08-27T21:22:52.307Z,8.17
2022-08-27T21:29:21.694Z,8.27
2022-08-27T21:32:05.640Z,8.17
2022-08-27T21:34:34.490Z,8.40
2022-08-27T21:37:03.880Z,8.47
2022-08-27T21:39:38.265Z,8.73
2022-08-27T21:42:07.796Z,8.80
2022-08-27T21:44:36.852Z,8.63
2022-08-27T21:47:07.218Z,8.90
2022-08-27T21:49:36.071Z,8.70
2022-08-27T21:52:07.317Z,8.83
2022-08-27T21:54:38.936Z,9.20
2022-08-27T21:57:08.820Z,9.00
2022-08-27T21:59:44.475Z,8.80
2022-08-27T22:02:38.168Z,8.80
2022-08-27T22:05:04.715Z,9.67
2022-08-27T22:07:33.076Z,9.00
2022-08-27T22:10:01.396Z,8.80
2022-08-27T22:18:57.789Z,9.13
2022-08-27T22:21:27.195Z,9.00
2022-08-27T22:23:55.654Z,9.33
2022-08-27T22:26:24.067Z,9.33
2022-08-27T22:28:52.476Z,9.70
2022-08-27T22:31:21.185Z,9.40
2022-08-27T22:33:49.956Z,9.20
2022-08-27T22:39:51.337Z,9.17
2022-08-27T22:42:22.147Z,9.63
2022-08-27T22:44:56.522Z,9.80
2022-08-27T22:47:28.466Z,8.93
2022-08-27T22:49:57.967Z,9.30
2022-08-27T22:52:28.280Z,9.07
2022-08-27T22:54:58.985Z,8.90
2022-08-27T22:57:56.529Z,9.47
2022-08-27T23:03:21.129Z,8.80
2022-08-27T23:19:21.170Z,9.03
2022-08-27T23:21:52.593Z,9.20
2022-08-27T23:24:21.993Z,9.10
2022-08-27T23:27:08.256Z,9.40
2022-08-27T23:29:36.962Z,9.30
2022-08-27T23:32:13.206Z,9.40
2022-08-27T23:34:46.371Z,9.50
2022-08-27T23:37:15.863Z,9.40
2022-08-27T23:53:27.105Z,9.50
